Time;durP1;ratioP1;P1;durP2;ratioP2;P2;SDS_P1;SDS_P2;PMS_P1;PMS_P2;Temp;Humidity;BMP_temperature;BMP_pressure;BME280_temperature;BME280_humidity;BME280_pressure;Samples;Min_cycle;Max_cycle;Signal;HPM_P1;HPM_P2
2021/01/09 00:00:51;;;;;;;17.17;10.57;;;;;;;-0.69;74.45;96591.59;5041606;28;20067;-76
2021/01/09 00:03:17;;;;;;;17.33;10.95;;;;;;;-0.66;74.76;96589.53;5031534;28;20048;-74
2021/01/09 00:05:44;;;;;;;21.23;11.30;;;;;;;-0.62;74.92;96585.72;5046494;28;20053;-73
2021/01/09 00:08:11;;;;;;;28.83;14.45;;;;;;;-0.63;74.58;96593.56;5044040;28;20072;-74
2021/01/09 00:10:37;;;;;;;21.00;11.90;;;;;;;-0.62;74.56;96590.06;5044012;28;20055;-73
2021/01/09 00:13:03;;;;;;;28.65;12.60;;;;;;;-0.62;74.85;96585.72;5046023;28;20075;-73
2021/01/09 00:15:30;;;;;;;18.77;10.90;;;;;;;-0.67;74.40;96579.41;5043680;28;20056;-73
2021/01/09 00:17:56;;;;;;;18.00;11.00;;;;;;;-0.75;74.50;96584.44;5052242;28;20048;-73
2021/01/09 00:20:23;;;;;;;24.48;12.55;;;;;;;-0.81;74.61;96580.69;5038598;28;20049;-73
2021/01/09 00:22:50;;;;;;;17.98;11.35;;;;;;;-0.78;74.75;96585.53;5047062;28;20049;-73
2021/01/09 00:25:16;;;;;;;21.98;12.40;;;;;;;-0.82;74.86;96582.44;5045804;28;20068;-73
2021/01/09 00:27:43;;;;;;;28.77;13.80;;;;;;;-0.84;74.99;96575.78;5048561;28;20041;-73
2021/01/09 00:30:10;;;;;;;19.17;11.35;;;;;;;-0.84;75.04;96576.63;5020983;28;20493;-73
2021/01/09 00:32:37;;;;;;;19.88;11.40;;;;;;;-0.90;74.69;96578.97;5051000;28;20060;-74
2021/01/09 00:35:05;;;;;;;18.63;10.80;;;;;;;-0.90;74.93;96591.84;5040377;28;20057;-73
2021/01/09 00:37:31;;;;;;;20.10;10.93;;;;;;;-0.92;74.94;96591.97;5052323;28;20052;-73
2021/01/09 00:39:58;;;;;;;19.00;10.35;;;;;;;-0.94;74.88;96593.88;5027091;28;20042;-74
2021/01/09 00:42:24;;;;;;;24.30;12.35;;;;;;;-0.96;75.25;96597.56;5051491;28;20045;-73
2021/01/09 00:44:50;;;;;;;24.05;12.65;;;;;;;-0.95;75.39;96594.00;5028334;28;20037;-73
2021/01/09 00:47:16;;;;;;;20.52;11.48;;;;;;;-0.89;75.44;96598.59;5053165;28;20048;-73
2021/01/09 00:49:43;;;;;;;24.05;12.60;;;;;;;-0.92;75.17;96593.75;5032326;28;20041;-73
2021/01/09 00:52:09;;;;;;;21.25;12.48;;;;;;;-0.93;75.08;96589.53;5051078;28;20052;-74
2021/01/09 00:54:36;;;;;;;23.60;12.93;;;;;;;-0.97;75.28;96585.63;5051586;28;20053;-73
2021/01/09 00:57:03;;;;;;;21.67;11.68;;;;;;;-0.95;75.35;96584.53;5040537;28;20056;-73
2021/01/09 00:59:29;;;;;;;22.98;11.77;;;;;;;-0.92;75.43;96589.41;5047951;28;20049;-73
2021/01/09 01:01:56;;;;;;;21.20;12.38;;;;;;;-0.89;75.51;96578.00;5048877;28;20064;-73
2021/01/09 01:04:23;;;;;;;21.48;11.38;;;;;;;-0.85;75.57;96587.88;5028617;28;20432;-73
2021/01/09 01:06:50;;;;;;;21.17;11.95;;;;;;;-0.85;75.42;96589.63;5042673;28;20065;-73
2021/01/09 01:09:16;;;;;;;20.90;12.27;;;;;;;-0.85;75.54;96590.44;5046214;28;20057;-73
2021/01/09 01:11:42;;;;;;;22.98;12.13;;;;;;;-0.82;75.33;96594.47;5020767;28;20072;-73
2021/01/09 01:14:09;;;;;;;22.80;12.30;;;;;;;-0.79;75.32;96590.84;5069553;28;20041;-73
2021/01/09 01:16:35;;;;;;;21.20;11.85;;;;;;;-0.78;75.23;96595.03;5073156;28;20056;-73
2021/01/09 01:19:02;;;;;;;21.17;12.38;;;;;;;-0.75;75.37;96594.75;5067581;28;20047;-73
2021/01/09 01:21:28;;;;;;;21.08;12.95;;;;;;;-0.73;75.23;96600.56;5072582;28;20056;-73
2021/01/09 01:23:54;;;;;;;26.65;14.38;;;;;;;-0.75;75.31;96600.69;5072022;28;20060;-73
2021/01/09 01:26:21;;;;;;;23.20;13.02;;;;;;;-0.74;75.62;96609.22;5067688;28;20055;-72
2021/01/09 01:28:47;;;;;;;22.92;12.82;;;;;;;-0.73;75.61;96606.53;5053566;28;20045;-73
2021/01/09 01:31:13;;;;;;;21.95;12.48;;;;;;;-0.74;75.16;96604.09;5067567;28;20400;-73
2021/01/09 01:33:40;;;;;;;26.77;14.13;;;;;;;-0.74;75.27;96602.31;5068815;28;20397;-73
2021/01/09 01:36:10;;;;;;;24.15;12.63;;;;;;;-0.73;75.51;96598.00;5067237;28;20056;-73
2021/01/09 01:38:37;;;;;;;25.23;14.10;;;;;;;-0.73;75.38;96601.38;5066112;28;20040;-73
2021/01/09 01:41:05;;;;;;;22.05;12.95;;;;;;;-0.77;75.27;96600.03;5064710;28;20049;-73
2021/01/09 01:43:32;;;;;;;23.95;13.65;;;;;;;-0.79;75.53;96612.25;5061079;28;20481;-73
2021/01/09 01:46:03;;;;;;;20.20;12.27;;;;;;;-0.80;75.60;96608.03;5072266;28;20472;-73
2021/01/09 01:48:29;;;;;;;23.77;12.98;;;;;;;-0.76;75.50;96614.50;5068258;28;20056;-73
2021/01/09 01:50:56;;;;;;;20.63;11.45;;;;;;;-0.75;75.63;96605.84;5073597;28;20044;-73
2021/01/09 01:53:23;;;;;;;23.23;13.50;;;;;;;-0.72;75.78;96607.31;5064595;28;20052;-74
2021/01/09 01:55:50;;;;;;;23.33;12.85;;;;;;;-0.70;75.70;96613.13;5065910;28;20032;-73
2021/01/09 01:58:16;;;;;;;19.17;12.18;;;;;;;-0.68;75.63;96603.50;5071364;28;20044;-74
2021/01/09 02:00:47;;;;;;;21.30;12.90;;;;;;;-0.65;75.57;96610.94;5072775;28;20055;-73
2021/01/09 02:03:18;;;;;;;21.88;12.90;;;;;;;-0.65;75.46;96614.34;5070002;28;20044;-74
2021/01/09 02:06:05;;;;;;;26.70;14.23;;;;;;;-0.65;75.51;96608.34;5072504;28;20059;-73
2021/01/09 02:08:40;;;;;;;36.70;15.70;;;;;;;-0.66;75.48;96607.56;5066117;28;20033;-73
2021/01/09 02:11:16;;;;;;;23.63;13.50;;;;;;;-0.65;75.63;96610.94;5061627;28;20028;-73
2021/01/09 02:14:01;;;;;;;23.33;13.07;;;;;;;-0.62;75.85;96615.81;5041115;28;20060;-76
2021/01/09 02:16:28;;;;;;;25.33;13.98;;;;;;;-0.62;75.63;96608.09;5047185;28;20090;-74
2021/01/09 02:18:55;;;;;;;21.83;12.20;;;;;;;-0.60;75.42;96613.91;5050305;28;20063;-73
2021/01/09 02:21:25;;;;;;;22.25;12.77;;;;;;;-0.58;75.52;96612.00;5046169;28;20059;-73
2021/01/09 02:23:52;;;;;;;26.40;13.68;;;;;;;-0.57;75.56;96603.31;5034037;28;20041;-73
2021/01/09 02:26:18;;;;;;;24.50;13.48;;;;;;;-0.56;75.66;96609.28;5051589;28;20045;-73
2021/01/09 02:28:45;;;;;;;22.00;13.23;;;;;;;-0.56;75.68;96615.25;5051282;28;20466;-73
2021/01/09 02:31:12;;;;;;;22.30;13.07;;;;;;;-0.54;75.65;96607.38;5049758;28;20056;-73
2021/01/09 02:33:40;;;;;;;22.88;12.60;;;;;;;-0.52;75.60;96615.78;5052767;28;20045;-73
2021/01/09 02:36:07;;;;;;;22.00;12.70;;;;;;;-0.52;75.98;96610.63;5023985;28;20033;-73
2021/01/09 02:38:36;;;;;;;25.40;12.93;;;;;;;-0.51;75.74;96607.06;5047998;28;20060;-73
2021/01/09 02:41:04;;;;;;;24.35;12.52;;;;;;;-0.51;75.75;96609.66;5044814;28;20056;-73
2021/01/09 02:43:30;;;;;;;25.30;12.95;;;;;;;-0.49;75.83;96605.16;5049482;28;20053;-73
2021/01/09 02:45:57;;;;;;;23.98;13.00;;;;;;;-0.49;75.64;96612.91;5045870;28;20061;-73
2021/01/09 02:48:23;;;;;;;23.15;13.93;;;;;;;-0.49;75.70;96615.47;5035007;28;20049;-73
2021/01/09 02:50:49;;;;;;;21.92;12.98;;;;;;;-0.50;75.52;96606.13;5050508;28;20045;-74
2021/01/09 02:53:16;;;;;;;20.10;12.07;;;;;;;-0.50;75.60;96614.66;5044029;28;20040;-73
2021/01/09 02:55:43;;;;;;;26.08;13.80;;;;;;;-0.50;75.74;96624.16;5034388;28;20520;-73
2021/01/09 02:58:10;;;;;;;21.85;12.82;;;;;;;-0.48;75.81;96624.84;5037326;28;20049;-77
2021/01/09 03:00:36;;;;;;;23.20;12.40;;;;;;;-0.47;75.87;96616.94;5046871;28;20053;-73
2021/01/09 03:03:02;;;;;;;22.30;13.88;;;;;;;-0.47;75.80;96624.66;5031171;28;20056;-73
2021/01/09 03:05:28;;;;;;;25.25;12.85;;;;;;;-0.45;75.85;96627.09;5053985;28;20491;-73
2021/01/09 03:07:55;;;;;;;26.85;13.82;;;;;;;-0.44;75.73;96631.31;5046410;28;20045;-73
2021/01/09 03:10:21;;;;;;;25.00;13.45;;;;;;;-0.44;75.83;96629.56;5052585;28;20049;-73
2021/01/09 03:12:47;;;;;;;19.67;12.35;;;;;;;-0.44;75.91;96623.59;5035503;28;20480;-73
2021/01/09 03:15:13;;;;;;;23.75;13.65;;;;;;;-0.44;75.91;96633.91;5063839;28;20408;-73
2021/01/09 03:17:40;;;;;;;22.55;12.90;;;;;;;-0.44;75.60;96637.28;5075954;28;20036;-73
2021/01/09 03:20:08;;;;;;;20.92;13.07;;;;;;;-0.46;75.48;96626.31;5069707;28;20048;-73
2021/01/09 03:22:35;;;;;;;21.50;13.18;;;;;;;-0.50;75.43;96630.13;5073003;28;20396;-73
2021/01/09 03:25:01;;;;;;;23.10;13.20;;;;;;;-0.52;75.57;96633.81;5071331;28;20045;-75
2021/01/09 03:27:27;;;;;;;25.75;13.70;;;;;;;-0.56;75.49;96632.47;5072217;28;20385;-73
2021/01/09 03:29:53;;;;;;;22.27;13.73;;;;;;;-0.60;75.55;96631.94;5071159;28;20071;-73
2021/01/09 03:32:19;;;;;;;22.65;13.02;;;;;;;-0.60;75.71;96634.50;5074108;28;20044;-75
2021/01/09 03:34:45;;;;;;;23.40;13.32;;;;;;;-0.59;75.85;96628.41;5072750;28;20053;-73
2021/01/09 03:37:13;;;;;;;23.13;13.05;;;;;;;-0.57;76.09;96625.69;5069753;28;20040;-73
2021/01/09 03:39:40;;;;;;;23.13;13.57;;;;;;;-0.55;76.22;96629.72;5072313;28;20484;-73
2021/01/09 03:42:06;;;;;;;22.10;13.43;;;;;;;-0.54;76.26;96617.69;5071825;28;20059;-73
2021/01/09 03:44:32;;;;;;;20.98;12.70;;;;;;;-0.52;76.48;96634.59;5072448;28;20044;-73
2021/01/09 03:46:58;;;;;;;25.45;13.90;;;;;;;-0.52;76.51;96628.66;5073578;28;20036;-74
2021/01/09 03:49:24;;;;;;;21.35;13.45;;;;;;;-0.51;76.45;96633.63;5070846;28;20044;-73
2021/01/09 03:51:51;;;;;;;23.23;13.68;;;;;;;-0.47;76.50;96631.59;5069896;28;20045;-74
2021/01/09 03:54:17;;;;;;;24.02;14.02;;;;;;;-0.48;76.52;96640.28;5069954;28;20474;-73
2021/01/09 03:56:43;;;;;;;23.27;14.15;;;;;;;-0.47;76.50;96642.72;5063394;28;20048;-73
2021/01/09 03:59:09;;;;;;;22.75;13.55;;;;;;;-0.45;76.67;96643.38;5063521;28;20044;-73
2021/01/09 04:01:35;;;;;;;22.17;13.05;;;;;;;-0.44;76.43;96639.84;5072212;28;20051;-73
2021/01/09 04:04:01;;;;;;;22.35;13.05;;;;;;;-0.43;76.37;96636.31;5071573;28;20057;-73
2021/01/09 04:06:28;;;;;;;22.85;13.63;;;;;;;-0.44;76.51;96639.84;5070347;28;20049;-73
2021/01/09 04:08:54;;;;;;;24.42;14.20;;;;;;;-0.45;76.66;96643.38;5067181;28;20037;-73
2021/01/09 04:11:20;;;;;;;23.67;13.90;;;;;;;-0.45;76.77;96634.84;5045102;28;20056;-73
2021/01/09 04:13:46;;;;;;;25.33;13.77;;;;;;;-0.45;76.58;96637.41;5056723;28;20473;-73
2021/01/09 04:16:12;;;;;;;20.67;13.15;;;;;;;-0.43;76.60;96638.09;5052003;28;20052;-73
2021/01/09 04:18:38;;;;;;;25.27;14.23;;;;;;;-0.45;76.46;96637.41;5036005;28;20156;-73
2021/01/09 04:21:05;;;;;;;22.08;13.63;;;;;;;-0.45;76.65;96635.66;5049903;28;20040;-77
2021/01/09 04:23:31;;;;;;;24.90;14.68;;;;;;;-0.46;76.65;96641.75;5053562;28;20470;-73
2021/01/09 04:25:57;;;;;;;26.15;13.80;;;;;;;-0.45;76.58;96640.00;5050539;28;20037;-74
2021/01/09 04:28:24;;;;;;;21.05;13.27;;;;;;;-0.42;76.83;96637.13;5032758;28;20123;-73
2021/01/09 04:30:50;;;;;;;24.17;13.82;;;;;;;-0.44;76.73;96637.28;5048348;28;20036;-73
2021/01/09 04:33:16;;;;;;;25.15;13.70;;;;;;;-0.44;76.65;96636.47;5038464;28;20064;-74
2021/01/09 04:35:42;;;;;;;24.98;13.65;;;;;;;-0.45;76.71;96637.41;5040991;28;20046;-74
2021/01/09 04:38:08;;;;;;;23.90;13.23;;;;;;;-0.45;76.84;96637.41;5052126;28;20056;-73
2021/01/09 04:40:36;;;;;;;23.65;13.45;;;;;;;-0.46;76.83;96646.13;5047685;28;20049;-73
2021/01/09 04:43:02;;;;;;;21.63;12.82;;;;;;;-0.47;76.77;96647.84;5047903;28;20053;-73
2021/01/09 04:45:29;;;;;;;24.80;13.75;;;;;;;-0.46;76.95;96644.34;5050504;28;20049;-74
2021/01/09 04:47:58;;;;;;;22.58;13.05;;;;;;;-0.45;77.07;96640.00;5045649;28;20045;-76
2021/01/09 04:50:26;;;;;;;23.02;13.82;;;;;;;-0.43;76.99;96643.25;5050534;28;20401;-73
2021/01/09 04:52:53;;;;;;;23.67;13.73;;;;;;;-0.43;77.07;96641.47;5048534;28;20421;-73
2021/01/09 04:55:19;;;;;;;25.83;14.13;;;;;;;-0.44;76.96;96636.47;5026824;28;20049;-74
2021/01/09 04:57:45;;;;;;;25.20;13.35;;;;;;;-0.46;77.00;96639.19;5053582;28;20045;-73
2021/01/09 05:00:12;;;;;;;22.98;13.25;;;;;;;-0.45;77.12;96645.94;5052855;28;20397;-73
2021/01/09 05:02:38;;;;;;;22.15;12.80;;;;;;;-0.44;77.22;96641.63;5048847;28;20107;-73
2021/01/09 05:05:06;;;;;;;25.70;14.32;;;;;;;-0.42;77.18;96644.84;5045313;28;20060;-74
2021/01/09 05:07:33;;;;;;;20.45;12.90;;;;;;;-0.41;77.28;96639.56;5031409;28;20053;-73
2021/01/09 05:10:02;;;;;;;22.75;12.98;;;;;;;-0.37;77.17;96642.66;5029989;28;20053;-73
2021/01/09 05:12:32;;;;;;;26.00;13.63;;;;;;;-0.37;77.17;96632.34;5052521;28;20053;-73
2021/01/09 05:15:00;;;;;;;23.60;13.05;;;;;;;-0.36;77.31;96640.88;5049420;28;20049;-74
2021/01/09 05:17:27;;;;;;;23.08;13.73;;;;;;;-0.36;77.31;96644.28;5033623;28;20040;-73
2021/01/09 05:19:53;;;;;;;20.80;12.27;;;;;;;-0.37;77.34;96644.44;5021128;28;20496;-72
2021/01/09 05:22:20;;;;;;;24.50;14.60;;;;;;;-0.39;77.51;96643.78;5046156;28;20049;-73
2021/01/09 05:24:49;;;;;;;23.65;13.70;;;;;;;-0.38;77.45;96647.94;5046095;28;20033;-73
2021/01/09 05:27:17;;;;;;;24.40;14.52;;;;;;;-0.38;77.65;96642.81;5048568;28;20359;-73
2021/01/09 05:29:43;;;;;;;26.05;15.07;;;;;;;-0.36;77.70;96649.44;5024639;28;20080;-73
2021/01/09 05:32:10;;;;;;;24.17;14.82;;;;;;;-0.35;77.74;96651.06;5051421;28;20396;-73
2021/01/09 05:34:51;;;;;;;24.67;14.98;;;;;;;-0.34;77.85;96650.09;5039730;28;20045;-73
2021/01/09 05:37:25;;;;;;;22.33;13.32;;;;;;;-0.33;77.55;96653.50;5044341;28;20047;-73
2021/01/09 05:39:56;;;;;;;21.45;12.98;;;;;;;-0.33;77.50;96650.94;5048710;28;20049;-73
2021/01/09 05:42:25;;;;;;;23.88;14.63;;;;;;;-0.34;77.61;96649.28;5046241;28;20036;-74
2021/01/09 05:44:52;;;;;;;26.40;13.98;;;;;;;-0.38;77.31;96656.47;5044404;28;20064;-73
2021/01/09 05:47:24;;;;;;;26.70;14.85;;;;;;;-0.43;77.45;96659.50;5046442;28;20056;-73
2021/01/09 05:49:51;;;;;;;23.63;14.18;;;;;;;-0.43;77.46;96669.00;5050866;28;20045;-73
2021/01/09 05:52:18;;;;;;;25.25;14.90;;;;;;;-0.47;77.46;96665.09;5046369;28;20059;-73
2021/01/09 05:54:44;;;;;;;26.50;15.32;;;;;;;-0.50;77.48;96657.66;5047553;28;20064;-74
2021/01/09 05:57:16;;;;;;;26.08;15.48;;;;;;;-0.57;77.44;96657.41;5023094;28;20045;-73
2021/01/09 05:59:44;;;;;;;24.15;14.77;;;;;;;-0.62;77.65;96659.59;5051068;28;20052;-73
2021/01/09 06:02:11;;;;;;;24.02;14.50;;;;;;;-0.60;77.88;96657.69;5053636;28;20500;-73
2021/01/09 06:04:44;;;;;;;26.05;15.27;;;;;;;-0.57;77.91;96664.31;5048597;28;20045;-72
2021/01/09 06:07:21;;;;;;;25.58;15.40;;;;;;;-0.56;78.11;96668.53;5051731;28;20075;-73
2021/01/09 06:09:56;;;;;;;24.38;14.48;;;;;;;-0.55;77.95;96665.78;5051718;28;20048;-73
2021/01/09 06:12:25;;;;;;;27.48;15.98;;;;;;;-0.55;77.90;96662.41;5040809;28;20049;-74
2021/01/09 06:14:53;;;;;;;29.00;16.17;;;;;;;-0.55;77.98;96663.22;5053575;28;20053;-73
2021/01/09 06:17:21;;;;;;;31.77;16.30;;;;;;;-0.56;77.64;96669.34;5054202;28;20041;-73
2021/01/09 06:19:48;;;;;;;27.08;14.88;;;;;;;-0.57;77.86;96661.75;5054857;28;20037;-73
2021/01/09 06:22:15;;;;;;;27.95;15.50;;;;;;;-0.55;77.82;96668.38;5044830;28;20496;-73
2021/01/09 06:24:41;;;;;;;26.48;15.73;;;;;;;-0.55;77.71;96672.72;5050889;28;20052;-73
2021/01/09 06:27:16;;;;;;;26.58;15.65;;;;;;;-0.58;77.66;96668.66;5049691;28;20509;-74
2021/01/09 06:29:42;;;;;;;;;;;;;;;-0.57;78.33;96666.91;5047565;28;20056;-74
2021/01/09 06:32:11;;;;;;;26.20;15.20;;;;;;;-0.63;77.91;96671.69;5047101;28;19917;-73
2021/01/09 06:34:39;;;;;;;29.70;15.70;;;;;;;-0.62;78.19;96678.44;5009892;28;20398;-74
2021/01/09 06:37:06;;;;;;;26.10;16.50;;;;;;;-0.62;78.19;96675.84;5033780;28;20037;-73
2021/01/09 06:39:37;;;;;;;30.20;16.40;;;;;;;-0.59;77.89;96668.81;5053792;28;20079;-73
2021/01/09 06:42:05;;;;;;;31.33;16.70;;;;;;;-0.58;77.99;96668.66;5050463;28;20060;-73
2021/01/09 06:44:32;;;;;;;28.95;16.67;;;;;;;-0.58;78.07;96671.25;5051918;28;20036;-73
2021/01/09 06:46:59;;;;;;;29.05;17.15;;;;;;;-0.58;77.95;96667.88;5044133;28;20045;-73
2021/01/09 06:49:26;;;;;;;28.00;16.00;;;;;;;-0.56;78.14;96665.97;5045474;28;20032;-73
2021/01/09 06:52:01;;;;;;;34.30;18.17;;;;;;;-0.54;78.27;96674.34;5043818;28;20048;-76
2021/01/09 06:54:39;;;;;;;28.83;16.67;;;;;;;-0.53;78.39;96676.75;5027799;28;20049;-73
2021/01/09 06:57:05;;;;;;;29.15;17.40;;;;;;;-0.52;78.25;96675.03;5050416;28;20045;-74
2021/01/09 06:59:33;;;;;;;31.52;17.85;;;;;;;-0.52;78.33;96678.41;5036220;28;20112;-73
2021/01/09 07:02:27;;;;;;;32.22;16.52;;;;;;;-0.49;78.63;96678.09;5055159;28;20037;-75
2021/01/09 07:05:08;;;;;;;29.45;16.95;;;;;;;-0.47;78.55;96680.53;5051755;28;20417;-73
2021/01/09 07:07:53;;;;;;;28.15;16.95;;;;;;;-0.45;78.84;96679.44;5041903;28;20458;-73
2021/01/09 07:10:24;;;;;;;29.55;16.60;;;;;;;-0.45;78.62;96681.22;5049920;28;20402;-73
2021/01/09 07:12:57;;;;;;;32.15;17.77;;;;;;;-0.45;78.59;96687.16;5052064;28;20602;-75
2021/01/09 07:15:25;;;;;;;28.02;16.30;;;;;;;-0.44;78.80;96677.69;5036359;28;20044;-74
2021/01/09 07:17:57;;;;;;;30.35;17.25;;;;;;;-0.43;78.73;96674.16;5035808;28;20386;-75
2021/01/09 07:20:28;;;;;;;30.42;17.55;;;;;;;-0.42;78.93;96675.75;5039581;28;20051;-75
2021/01/09 07:23:00;;;;;;;27.40;15.40;;;;;;;-0.41;78.91;96675.63;5053476;28;20053;-75
2021/01/09 07:25:32;;;;;;;29.15;16.00;;;;;;;-0.40;78.93;96681.59;5042431;28;20417;-75
2021/01/09 07:28:00;;;;;;;29.15;16.83;;;;;;;-0.39;78.95;96682.41;5055312;28;20136;-75
2021/01/09 07:30:28;;;;;;;32.00;18.20;;;;;;;-0.39;78.85;96690.94;5037781;28;20029;-77
2021/01/09 07:32:55;;;;;;;32.53;16.90;;;;;;;-0.42;78.86;96686.06;5052310;28;20049;-76
2021/01/09 07:35:27;;;;;;;30.02;17.73;;;;;;;-0.42;79.24;96686.06;5041744;28;20051;-74
2021/01/09 07:38:02;;;;;;;32.50;17.35;;;;;;;-0.42;79.36;96697.22;5037967;28;20041;-74
2021/01/09 07:40:33;;;;;;;33.45;19.33;;;;;;;-0.42;79.29;96697.22;5047428;28;20049;-75
2021/01/09 07:43:00;;;;;;;29.55;17.10;;;;;;;-0.40;79.15;96702.19;5052474;28;20040;-76
2021/01/09 07:45:31;;;;;;;33.17;17.90;;;;;;;-0.40;79.57;96702.19;5053162;28;20465;-75
2021/01/09 07:47:58;;;;;;;34.10;18.27;;;;;;;-0.39;79.15;96703.03;5049854;28;20049;-80
2021/01/09 07:50:24;;;;;;;29.90;18.27;;;;;;;-0.38;79.33;96704.63;5040463;28;20041;-75
2021/01/09 07:53:26;;;;;;;32.75;18.25;;;;;;;-0.38;79.98;96710.59;5051470;28;20393;-75
2021/01/09 07:55:53;;;;;;;36.80;18.73;;;;;;;-0.36;79.31;96707.88;5032564;28;20409;-75
2021/01/09 07:58:46;;;;;;;31.35;17.92;;;;;;;-0.33;79.89;96708.41;5047436;28;20374;-75
2021/01/09 08:01:12;;;;;;;30.95;17.83;;;;;;;-0.32;79.43;96717.75;5020280;28;20401;-75
2021/01/09 08:03:39;;;;;;;36.03;19.95;;;;;;;-0.31;79.50;96714.25;5050084;28;20049;-75
2021/01/09 08:06:06;;;;;;;35.15;20.25;;;;;;;-0.31;79.51;96718.59;5044135;28;20142;-75
2021/01/09 08:08:32;;;;;;;42.17;22.17;;;;;;;-0.31;79.49;96728.91;5034589;28;20045;-75
2021/01/09 08:11:02;;;;;;;41.28;22.23;;;;;;;-0.34;79.60;96727.41;5051283;28;20032;-76
2021/01/09 08:13:28;;;;;;;49.65;25.23;;;;;;;-0.35;79.40;96725.78;5057982;28;20055;-75
2021/01/09 08:15:55;;;;;;;50.00;25.63;;;;;;;-0.35;79.67;96725.78;5074076;28;20055;-75
2021/01/09 08:18:21;;;;;;;50.85;25.38;;;;;;;-0.32;79.90;96729.84;5051413;28;20040;-75
2021/01/09 08:20:50;;;;;;;49.13;24.80;;;;;;;-0.31;80.07;96727.13;5071043;28;20048;-73
2021/01/09 08:23:16;;;;;;;43.47;23.10;;;;;;;-0.30;79.90;96728.72;5072235;28;20465;-73
2021/01/09 08:25:43;;;;;;;44.45;23.60;;;;;;;-0.30;79.94;96726.16;5045636;28;20378;-73
2021/01/09 08:28:11;;;;;;;51.55;24.73;;;;;;;-0.29;80.07;96732.94;5073898;28;20049;-73
2021/01/09 08:30:39;;;;;;;38.35;21.77;;;;;;;-0.29;80.49;96740.69;5073996;28;20055;-73
2021/01/09 08:33:09;;;;;;;49.58;25.73;;;;;;;-0.25;80.14;96743.78;5070226;28;20404;-74
2021/01/09 08:35:37;;;;;;;46.83;23.60;;;;;;;-0.26;80.16;96737.00;5054041;28;20380;-73
2021/01/09 08:38:05;;;;;;;49.67;26.23;;;;;;;-0.24;80.12;96740.25;5065569;28;20392;-74
2021/01/09 08:40:32;;;;;;;49.10;23.67;;;;;;;-0.24;80.14;96747.97;5049176;28;20056;-73
2021/01/09 08:42:59;;;;;;;48.30;23.30;;;;;;;-0.26;80.26;96737.00;5077695;28;20479;-75
2021/01/09 08:45:55;;;;;;;48.47;23.48;;;;;;;-0.23;81.12;96747.03;5073894;28;20040;-73
2021/01/09 08:48:35;;;;;;;47.15;24.00;;;;;;;-0.23;80.96;96747.03;5042990;28;20053;-75
2021/01/09 08:51:09;;;;;;;54.95;26.73;;;;;;;-0.21;80.74;96745.94;5066814;28;20044;-73
2021/01/09 08:53:41;;;;;;;51.92;25.83;;;;;;;-0.17;80.53;96749.03;5075450;28;20057;-73
2021/01/09 08:56:08;;;;;;;49.35;24.90;;;;;;;-0.14;80.58;96750.53;5041855;28;20378;-74
2021/01/09 08:58:37;;;;;;;54.10;26.17;;;;;;;-0.09;80.52;96759.44;5062128;28;20052;-74
2021/01/09 09:01:06;;;;;;;51.63;26.60;;;;;;;-0.06;80.45;96750.63;5047702;28;20048;-73
2021/01/09 09:03:36;;;;;;;51.22;26.08;;;;;;;-0.04;80.59;96759.03;5040517;28;20045;-76
2021/01/09 09:06:08;;;;;;;56.85;27.73;;;;;;;-0.06;80.55;96763.50;5030259;28;20041;-74
2021/01/09 09:08:35;;;;;;;60.45;27.45;;;;;;;-0.10;80.60;96762.16;5064153;28;20408;-74
2021/01/09 09:11:04;;;;;;;58.75;28.10;;;;;;;-0.14;80.68;96771.16;5045016;28;20052;-74
2021/01/09 09:13:31;;;;;;;57.95;25.98;;;;;;;-0.18;80.65;96765.44;5048067;28;20048;-76
2021/01/09 09:16:14;;;;;;;58.63;26.70;;;;;;;-0.23;81.04;96773.63;5073851;28;20044;-73
2021/01/09 09:18:41;;;;;;;56.15;25.75;;;;;;;-0.21;81.10;96766.56;5067693;28;20045;-73
2021/01/09 09:21:11;;;;;;;64.15;26.73;;;;;;;-0.19;80.96;96768.16;5065049;28;20059;-74
2021/01/09 09:23:38;;;;;;;50.80;24.17;;;;;;;-0.22;81.19;96769.28;5071873;28;20421;-75
2021/01/09 09:26:04;;;;;;;55.25;25.88;;;;;;;-0.21;81.02;96776.03;5068442;28;20051;-73
2021/01/09 09:28:30;;;;;;;53.25;24.40;;;;;;;-0.20;81.05;96777.66;5067131;28;20056;-74
2021/01/09 09:30:56;;;;;;;52.38;24.00;;;;;;;-0.19;81.29;96779.28;5068167;28;20393;-73
2021/01/09 09:33:24;;;;;;;60.60;27.33;;;;;;;-0.14;80.98;96776.31;5068218;28;20472;-74
2021/01/09 09:35:51;;;;;;;53.22;25.33;;;;;;;-0.13;81.14;96780.50;5066740;28;20055;-74
2021/01/09 09:38:26;;;;;;;55.97;25.77;;;;;;;-0.10;81.54;96783.59;5067032;28;20052;-73
2021/01/09 09:41:03;;;;;;;58.22;24.48;;;;;;;-0.10;81.53;96783.59;5067358;28;20048;-73
2021/01/09 09:43:30;;;;;;;53.58;23.80;;;;;;;-0.11;81.19;96788.88;5068368;28;20044;-75
2021/01/09 09:46:04;;;;;;;52.10;23.52;;;;;;;-0.11;81.38;96791.47;5076697;28;20055;-73
2021/01/09 09:48:33;;;;;;;49.90;23.67;;;;;;;-0.13;81.18;96801.09;5063773;28;20041;-74
2021/01/09 09:51:08;;;;;;;51.35;23.17;;;;;;;-0.14;81.48;96797.72;5067110;28;20063;-74
2021/01/09 09:53:39;;;;;;;51.55;22.85;;;;;;;-0.14;81.17;96799.50;5066893;28;20039;-74
2021/01/09 09:56:12;;;;;;;61.22;26.40;;;;;;;-0.19;81.17;96799.09;5065609;28;20045;-73
2021/01/09 09:58:38;;;;;;;53.70;24.33;;;;;;;-0.22;81.30;96795.03;5065850;28;20052;-77
2021/01/09 10:01:21;;;;;;;52.72;24.63;;;;;;;-0.16;82.23;96796.25;5064513;28;20488;-73
2021/01/09 10:03:51;;;;;;;62.65;27.38;;;;;;;-0.10;81.62;96795.69;5067968;28;20044;-73
2021/01/09 10:06:17;;;;;;;52.95;23.98;;;;;;;-0.06;81.58;96802.19;5071116;28;20051;-74
2021/01/09 10:08:44;;;;;;;57.80;25.95;;;;;;;-0.02;81.53;96799.16;5068355;28;20044;-73
2021/01/09 10:11:11;;;;;;;54.00;23.83;;;;;;;0.02;81.55;96796.28;5061101;28;20037;-73
2021/01/09 10:13:37;;;;;;;52.63;24.00;;;;;;;0.10;81.55;96798.97;5049583;28;20053;-75
2021/01/09 10:16:04;;;;;;;53.42;23.90;;;;;;;0.16;81.42;96793.25;5037603;28;20056;-73
2021/01/09 10:18:32;;;;;;;53.17;23.33;;;;;;;0.25;81.42;96800.09;5041576;28;20052;-75
2021/01/09 10:20:59;;;;;;;45.75;20.15;;;;;;;0.32;82.41;96796.00;5042803;28;20041;-73
2021/01/09 10:23:28;;;;;;;45.10;22.42;;;;;;;0.43;81.47;96797.56;5027561;28;20063;-73
2021/01/09 10:25:55;;;;;;;39.42;17.92;;;;;;;0.62;84.75;96799.22;5049136;28;20048;-74
2021/01/09 10:28:23;;;;;;;38.55;18.75;;;;;;;0.89;83.13;96793.16;5051940;28;20044;-73
2021/01/09 10:30:49;;;;;;;40.03;19.65;;;;;;;0.93;80.72;96794.50;5051697;28;20052;-73
2021/01/09 10:33:16;;;;;;;37.45;18.15;;;;;;;0.87;80.17;96787.34;5051563;28;20045;-73
2021/01/09 10:35:47;;;;;;;39.90;19.25;;;;;;;0.83;79.80;96791.19;5051500;28;20045;-73
2021/01/09 10:38:14;;;;;;;39.50;19.17;;;;;;;0.77;80.05;96784.81;5047968;28;20037;-74
2021/01/09 10:40:42;;;;;;;39.33;18.92;;;;;;;0.73;80.12;96788.66;5044760;28;20056;-75
2021/01/09 10:43:08;;;;;;;42.17;19.48;;;;;;;0.67;80.19;96781.50;5039089;28;20037;-73
2021/01/09 10:45:34;;;;;;;35.65;18.55;;;;;;;0.67;80.51;96783.28;5050939;28;20041;-75
2021/01/09 10:48:01;;;;;;;39.50;19.83;;;;;;;0.65;80.32;96783.44;5035013;28;20044;-73
2021/01/09 10:50:27;;;;;;;42.13;21.40;;;;;;;0.63;80.34;96780.19;5041911;28;20056;-72
2021/01/09 10:52:53;;;;;;;44.70;21.88;;;;;;;0.60;80.46;96783.06;5055801;28;20041;-75
2021/01/09 10:55:20;;;;;;;47.85;23.00;;;;;;;0.58;80.19;96782.41;5055056;28;20045;-73
2021/01/09 10:57:46;;;;;;;45.17;21.92;;;;;;;0.59;83.20;96781.44;5055613;28;20049;-73
2021/01/09 11:00:15;;;;;;;42.92;22.52;;;;;;;0.69;80.85;96782.16;5054256;28;21727;-74
2021/01/09 11:02:41;;;;;;;48.67;22.85;;;;;;;0.69;80.32;96777.00;5054702;28;20405;-73
2021/01/09 11:05:08;;;;;;;48.20;22.98;;;;;;;0.67;80.09;96772.94;5036657;28;20048;-75
2021/01/09 11:07:34;;;;;;;45.08;23.95;;;;;;;0.63;80.22;96775.03;5046259;28;20068;-74
2021/01/09 11:10:01;;;;;;;47.63;23.20;;;;;;;0.59;80.14;96774.50;5045675;28;20053;-74
2021/01/09 11:12:27;;;;;;;43.80;22.20;;;;;;;0.56;80.13;96761.09;5048621;28;20045;-75
2021/01/09 11:14:53;;;;;;;44.53;22.27;;;;;;;0.58;80.22;96769.50;5036471;28;20049;-77
2021/01/09 11:17:20;;;;;;;44.40;22.05;;;;;;;0.60;80.21;96770.97;5036433;28;20045;-74
2021/01/09 11:19:47;;;;;;;39.15;20.30;;;;;;;0.63;79.83;96767.28;5051428;28;20049;-74
2021/01/09 11:22:13;;;;;;;43.05;21.15;;;;;;;0.65;79.58;96772.28;5049143;28;20405;-74
2021/01/09 11:24:39;;;;;;;36.33;19.42;;;;;;;0.62;79.42;96772.59;5054068;28;20053;-76